sensor_id;sensor_type;location;lat;lon;timestamp;temperature;humidity
32640;DHT22;19049;52.524;11.468;2024-01-15T00:02:12;3.60;99.90
32640;DHT22;19049;52.524;11.468;2024-01-15T00:04:39;3.60;99.90
32640;DHT22;19049;52.524;11.468;2024-01-15T00:07:05;3.70;99.90
32640;DHT22;19049;52.524;11.468;2024-01-15T00:09:31;3.70;99.90
32640;DHT22;19049;52.524;11.468;2024-01-15T00:11:56;3.60;99.90
32640;DHT22;19049;52.524;11.468;2024-01-15T00:14:22;3.50;99.90
32640;DHT22;19049;52.524;11.468;2024-01-15T00:16:48;3.50;99.90
32640;DHT22;19049;52.524;11.468;2024-01-15T00:19:17;3.60;99.90
32640;DHT22;19049;52.524;11.468;2024-01-15T00:21:42;3.50;99.90
32640;DHT22;19049;52.524;11.468;2024-01-15T00:24:08;3.50;99.90
32640;DHT22;19049;52.524;11.468;2024-01-15T00:26:34;3.50;99.90
32640;DHT22;19049;52.524;11.468;2024-01-15T00:28:59;3.50;99.90
32640;DHT22;19049;52.524;11.468;2024-01-15T00:31:25;3.50;99.90
32640;DHT22;19049;52.524;11.468;2024-01-15T00:33:50;3.50;99.90
32640;DHT22;19049;52.524;11.468;2024-01-15T00:36:16;3.40;99.90
32640;DHT22;19049;52.524;11.468;2024-01-15T00:38:42;3.40;99.90
32640;DHT22;19049;52.524;11.468;2024-01-15T00:41:08;3.40;99.90
32640;DHT22;19049;52.524;11.468;2024-01-15T00:43:34;3.30;99.90
32640;DHT22;19049;52.524;11.468;2024-01-15T00:46:02;3.30;99.90
32640;DHT22;19049;52.524;11.468;2024-01-15T00:48:28;3.40;99.90
32640;DHT22;19049;52.524;11.468;2024-01-15T00:50:53;3.50;99.90
32640;DHT22;19049;52.524;11.468;2024-01-15T00:53:20;3.40;99.90
32640;DHT22;19049;52.524;11.468;2024-01-15T00:55:47;3.50;99.90
32640;DHT22;19049;52.524;11.468;2024-01-15T00:58:13;3.40;99.90
32640;DHT22;19049;52.524;11.468;2024-01-15T01:00:38;3.50;99.90
32640;DHT22;19049;52.524;11.468;2024-01-15T01:03:04;3.50;99.90
32640;DHT22;19049;52.524;11.468;2024-01-15T01:05:30;3.60;99.90
32640;DHT22;19049;52.524;11.468;2024-01-15T01:07:55;3.50;99.90
32640;DHT22;19049;52.524;11.468;2024-01-15T01:10:21;3.50;99.90
32640;DHT22;19049;52.524;11.468;2024-01-15T01:12:46;3.50;99.90
32640;DHT22;19049;52.524;11.468;2024-01-15T01:15:12;3.50;99.90
32640;DHT22;19049;52.524;11.468;2024-01-15T01:17:37;3.50;99.90
32640;DHT22;19049;52.524;11.468;2024-01-15T01:20:03;3.50;99.90
32640;DHT22;19049;52.524;11.468;2024-01-15T01:22:31;3.50;99.90
32640;DHT22;19049;52.524;11.468;2024-01-15T01:24:57;3.40;99.90
32640;DHT22;19049;52.524;11.468;2024-01-15T01:27:22;3.40;99.90
32640;DHT22;19049;52.524;11.468;2024-01-15T01:29:48;3.40;99.90
32640;DHT22;19049;52.524;11.468;2024-01-15T01:32:13;3.30;99.90
32640;DHT22;19049;52.524;11.468;2024-01-15T01:34:42;3.40;99.90
32640;DHT22;19049;52.524;11.468;2024-01-15T01:37:08;3.30;99.90
32640;DHT22;19049;52.524;11.468;2024-01-15T01:39:34;3.30;99.90
32640;DHT22;19049;52.524;11.468;2024-01-15T01:41:59;3.30;99.90
32640;DHT22;19049;52.524;11.468;2024-01-15T01:44:25;3.30;99.90
32640;DHT22;19049;52.524;11.468;2024-01-15T01:46:50;3.30;99.90
32640;DHT22;19049;52.524;11.468;2024-01-15T01:49:16;3.30;99.90
32640;DHT22;19049;52.524;11.468;2024-01-15T01:51:42;3.40;99.90
32640;DHT22;19049;52.524;11.468;2024-01-15T01:54:08;3.40;99.90
32640;DHT22;19049;52.524;11.468;2024-01-15T01:56:37;3.40;99.90
32640;DHT22;19049;52.524;11.468;2024-01-15T01:59:04;3.40;99.90
32640;DHT22;19049;52.524;11.468;2024-01-15T02:01:31;3.40;99.90
32640;DHT22;19049;52.524;11.468;2024-01-15T02:03:56;3.40;99.90
32640;DHT22;19049;52.524;11.468;2024-01-15T02:06:23;3.40;99.90
32640;DHT22;19049;52.524;11.468;2024-01-15T02:08:49;3.30;99.90
32640;DHT22;19049;52.524;11.468;2024-01-15T02:11:15;3.40;99.90
32640;DHT22;19049;52.524;11.468;2024-01-15T02:13:41;3.40;99.90
32640;DHT22;19049;52.524;11.468;2024-01-15T02:16:06;3.40;99.90
32640;DHT22;19049;52.524;11.468;2024-01-15T02:18:46;3.50;99.90
32640;DHT22;19049;52.524;11.468;2024-01-15T02:21:11;3.50;99.90
32640;DHT22;19049;52.524;11.468;2024-01-15T02:23:37;3.60;99.90
32640;DHT22;19049;52.524;11.468;2024-01-15T02:26:04;3.60;99.90
32640;DHT22;19049;52.524;11.468;2024-01-15T02:28:30;3.60;99.90
32640;DHT22;19049;52.524;11.468;2024-01-15T02:30:57;3.70;99.90
32640;DHT22;19049;52.524;11.468;2024-01-15T02:33:23;3.70;99.90
32640;DHT22;19049;52.524;11.468;2024-01-15T02:35:48;3.70;99.90
32640;DHT22;19049;52.524;11.468;2024-01-15T02:38:15;3.60;99.90
32640;DHT22;19049;52.524;11.468;2024-01-15T02:40:41;3.70;99.90
32640;DHT22;19049;52.524;11.468;2024-01-15T02:43:07;3.70;99.90
32640;DHT22;19049;52.524;11.468;2024-01-15T02:45:32;3.80;99.90
32640;DHT22;19049;52.524;11.468;2024-01-15T02:47:58;3.80;99.90
32640;DHT22;19049;52.524;11.468;2024-01-15T02:50:24;3.70;99.90
32640;DHT22;19049;52.524;11.468;2024-01-15T02:52:49;3.60;99.90
32640;DHT22;19049;52.524;11.468;2024-01-15T02:55:15;3.70;99.90
32640;DHT22;19049;52.524;11.468;2024-01-15T02:57:40;3.70;99.90
32640;DHT22;19049;52.524;11.468;2024-01-15T03:00:06;3.70;99.90
32640;DHT22;19049;52.524;11.468;2024-01-15T03:02:33;3.60;99.90
32640;DHT22;19049;52.524;11.468;2024-01-15T03:04:58;3.60;99.90
32640;DHT22;19049;52.524;11.468;2024-01-15T03:07:24;3.60;99.90
32640;DHT22;19049;52.524;11.468;2024-01-15T03:09:49;3.60;99.90
32640;DHT22;19049;52.524;11.468;2024-01-15T03:12:15;3.70;99.90
32640;DHT22;19049;52.524;11.468;2024-01-15T03:14:41;3.60;99.90
32640;DHT22;19049;52.524;11.468;2024-01-15T03:17:06;3.60;99.90
32640;DHT22;19049;52.524;11.468;2024-01-15T03:19:35;3.70;99.90
32640;DHT22;19049;52.524;11.468;2024-01-15T03:22:00;3.70;99.90
32640;DHT22;19049;52.524;11.468;2024-01-15T03:24:28;3.70;99.90
32640;DHT22;19049;52.524;11.468;2024-01-15T03:26:53;3.80;99.90
32640;DHT22;19049;52.524;11.468;2024-01-15T03:29:19;3.80;99.90
32640;DHT22;19049;52.524;11.468;2024-01-15T03:31:44;3.70;99.90
32640;DHT22;19049;52.524;11.468;2024-01-15T03:34:10;3.70;99.90
32640;DHT22;19049;52.524;11.468;2024-01-15T03:36:35;3.80;99.90
32640;DHT22;19049;52.524;11.468;2024-01-15T03:39:01;3.80;99.90
32640;DHT22;19049;52.524;11.468;2024-01-15T03:41:26;3.70;99.90
32640;DHT22;19049;52.524;11.468;2024-01-15T03:43:52;3.80;99.90
32640;DHT22;19049;52.524;11.468;2024-01-15T03:46:18;3.70;99.90
32640;DHT22;19049;52.524;11.468;2024-01-15T03:48:43;3.80;99.90
32640;DHT22;19049;52.524;11.468;2024-01-15T03:51:09;3.90;99.90
32640;DHT22;19049;52.524;11.468;2024-01-15T03:53:34;3.90;99.90
32640;DHT22;19049;52.524;11.468;2024-01-15T03:56:00;3.90;99.90
32640;DHT22;19049;52.524;11.468;2024-01-15T03:58:25;4.00;99.90
32640;DHT22;19049;52.524;11.468;2024-01-15T04:00:51;3.90;99.90
32640;DHT22;19049;52.524;11.468;2024-01-15T04:03:16;3.90;99.90
32640;DHT22;19049;52.524;11.468;2024-01-15T04:05:42;4.00;99.90
32640;DHT22;19049;52.524;11.468;2024-01-15T04:08:08;4.00;99.90
32640;DHT22;19049;52.524;11.468;2024-01-15T04:10:33;4.00;99.90
32640;DHT22;19049;52.524;11.468;2024-01-15T04:12:59;3.80;99.90
32640;DHT22;19049;52.524;11.468;2024-01-15T04:15:25;3.80;99.90
32640;DHT22;19049;52.524;11.468;2024-01-15T04:17:51;3.90;99.90
32640;DHT22;19049;52.524;11.468;2024-01-15T04:20:17;3.80;99.90
32640;DHT22;19049;52.524;11.468;2024-01-15T04:22:43;3.90;99.90
32640;DHT22;19049;52.524;11.468;2024-01-15T04:25:09;3.90;99.90
32640;DHT22;19049;52.524;11.468;2024-01-15T04:27:35;3.90;99.90
32640;DHT22;19049;52.524;11.468;2024-01-15T04:30:00;3.90;99.90
32640;DHT22;19049;52.524;11.468;2024-01-15T04:32:26;3.90;99.90
32640;DHT22;19049;52.524;11.468;2024-01-15T04:34:51;3.90;99.90
32640;DHT22;19049;52.524;11.468;2024-01-15T04:37:17;4.00;99.90
32640;DHT22;19049;52.524;11.468;2024-01-15T04:39:42;3.90;99.90
32640;DHT22;19049;52.524;11.468;2024-01-15T04:42:08;3.90;99.90
32640;DHT22;19049;52.524;11.468;2024-01-15T04:44:33;3.90;99.90
32640;DHT22;19049;52.524;11.468;2024-01-15T04:46:59;3.90;99.90
32640;DHT22;19049;52.524;11.468;2024-01-15T04:49:24;4.00;99.90
32640;DHT22;19049;52.524;11.468;2024-01-15T04:51:52;3.90;99.90
32640;DHT22;19049;52.524;11.468;2024-01-15T04:54:18;3.90;99.90
32640;DHT22;19049;52.524;11.468;2024-01-15T04:56:44;3.90;99.90
32640;DHT22;19049;52.524;11.468;2024-01-15T04:59:10;3.90;99.90
32640;DHT22;19049;52.524;11.468;2024-01-15T05:01:36;3.80;99.90
32640;DHT22;19049;52.524;11.468;2024-01-15T05:04:01;3.80;99.90
32640;DHT22;19049;52.524;11.468;2024-01-15T05:06:27;3.80;99.90
32640;DHT22;19049;52.524;11.468;2024-01-15T05:08:53;3.80;99.90
32640;DHT22;19049;52.524;11.468;2024-01-15T05:11:18;3.70;99.90
32640;DHT22;19049;52.524;11.468;2024-01-15T05:13:44;3.70;99.90
32640;DHT22;19049;52.524;11.468;2024-01-15T05:16:09;3.70;99.90
32640;DHT22;19049;52.524;11.468;2024-01-15T05:18:35;3.70;99.90
32640;DHT22;19049;52.524;11.468;2024-01-15T05:21:03;3.70;99.90
32640;DHT22;19049;52.524;11.468;2024-01-15T05:23:28;3.60;99.90
32640;DHT22;19049;52.524;11.468;2024-01-15T05:25:54;3.60;99.90
32640;DHT22;19049;52.524;11.468;2024-01-15T05:28:19;3.60;99.90
32640;DHT22;19049;52.524;11.468;2024-01-15T05:30:45;3.60;99.90
32640;DHT22;19049;52.524;11.468;2024-01-15T05:33:10;3.60;99.90
32640;DHT22;19049;52.524;11.468;2024-01-15T05:35:36;3.60;99.90
32640;DHT22;19049;52.524;11.468;2024-01-15T05:38:01;3.70;99.90
32640;DHT22;19049;52.524;11.468;2024-01-15T05:40:28;3.70;99.90
32640;DHT22;19049;52.524;11.468;2024-01-15T05:42:53;3.60;99.90
32640;DHT22;19049;52.524;11.468;2024-01-15T05:45:19;3.50;99.90
32640;DHT22;19049;52.524;11.468;2024-01-15T05:47:45;3.60;99.90
32640;DHT22;19049;52.524;11.468;2024-01-15T05:50:10;3.70;99.90
32640;DHT22;19049;52.524;11.468;2024-01-15T05:52:36;3.70;99.90
32640;DHT22;19049;52.524;11.468;2024-01-15T05:55:02;3.80;99.90
32640;DHT22;19049;52.524;11.468;2024-01-15T05:57:27;3.80;99.90
32640;DHT22;19049;52.524;11.468;2024-01-15T05:59:53;3.90;99.90
32640;DHT22;19049;52.524;11.468;2024-01-15T06:02:19;3.90;99.90
32640;DHT22;19049;52.524;11.468;2024-01-15T06:04:45;4.00;99.90
32640;DHT22;19049;52.524;11.468;2024-01-15T06:07:10;3.90;99.90
32640;DHT22;19049;52.524;11.468;2024-01-15T06:09:36;3.90;99.90
32640;DHT22;19049;52.524;11.468;2024-01-15T06:12:02;3.90;99.90
32640;DHT22;19049;52.524;11.468;2024-01-15T06:14:27;3.90;99.90
32640;DHT22;19049;52.524;11.468;2024-01-15T06:16:53;3.90;99.90
32640;DHT22;19049;52.524;11.468;2024-01-15T06:19:18;3.90;99.90
32640;DHT22;19049;52.524;11.468;2024-01-15T06:21:44;3.70;99.90
32640;DHT22;19049;52.524;11.468;2024-01-15T06:24:09;3.90;99.90
32640;DHT22;19049;52.524;11.468;2024-01-15T06:26:35;3.90;99.90
32640;DHT22;19049;52.524;11.468;2024-01-15T06:29:01;3.90;99.90
32640;DHT22;19049;52.524;11.468;2024-01-15T06:31:28;3.90;99.90
32640;DHT22;19049;52.524;11.468;2024-01-15T06:33:54;3.90;99.90
32640;DHT22;19049;52.524;11.468;2024-01-15T06:36:20;3.80;99.90
32640;DHT22;19049;52.524;11.468;2024-01-15T06:38:45;3.70;99.90
32640;DHT22;19049;52.524;11.468;2024-01-15T06:41:11;3.80;99.90
32640;DHT22;19049;52.524;11.468;2024-01-15T06:43:36;3.80;99.90
32640;DHT22;19049;52.524;11.468;2024-01-15T06:46:02;3.80;99.90
32640;DHT22;19049;52.524;11.468;2024-01-15T06:48:27;3.80;99.90
32640;DHT22;19049;52.524;11.468;2024-01-15T06:50:53;3.70;99.90
32640;DHT22;19049;52.524;11.468;2024-01-15T06:53:19;3.80;99.90
32640;DHT22;19049;52.524;11.468;2024-01-15T06:55:44;3.70;99.90
32640;DHT22;19049;52.524;11.468;2024-01-15T06:58:10;3.70;99.90
32640;DHT22;19049;52.524;11.468;2024-01-15T07:00:35;3.70;99.90
32640;DHT22;19049;52.524;11.468;2024-01-15T07:03:01;3.60;99.90
32640;DHT22;19049;52.524;11.468;2024-01-15T07:05:26;3.60;99.90
32640;DHT22;19049;52.524;11.468;2024-01-15T07:07:52;3.70;99.90
32640;DHT22;19049;52.524;11.468;2024-01-15T07:10:18;3.60;99.90
32640;DHT22;19049;52.524;11.468;2024-01-15T07:12:43;3.60;99.90
32640;DHT22;19049;52.524;11.468;2024-01-15T07:15:09;3.70;99.90
32640;DHT22;19049;52.524;11.468;2024-01-15T07:17:35;3.50;99.90
32640;DHT22;19049;52.524;11.468;2024-01-15T07:20:01;3.60;99.90
32640;DHT22;19049;52.524;11.468;2024-01-15T07:22:27;3.60;99.90
32640;DHT22;19049;52.524;11.468;2024-01-15T07:24:52;3.60;99.90
32640;DHT22;19049;52.524;11.468;2024-01-15T07:27:18;3.60;99.90
32640;DHT22;19049;52.524;11.468;2024-01-15T07:29:44;3.60;99.90
32640;DHT22;19049;52.524;11.468;2024-01-15T07:32:10;3.60;99.90
32640;DHT22;19049;52.524;11.468;2024-01-15T07:34:35;3.60;99.90
32640;DHT22;19049;52.524;11.468;2024-01-15T07:37:01;3.70;99.90
32640;DHT22;19049;52.524;11.468;2024-01-15T07:39:26;3.70;99.90
32640;DHT22;19049;52.524;11.468;2024-01-15T07:41:54;3.70;99.90
32640;DHT22;19049;52.524;11.468;2024-01-15T07:44:19;3.70;99.90
32640;DHT22;19049;52.524;11.468;2024-01-15T07:46:48;3.80;99.90
32640;DHT22;19049;52.524;11.468;2024-01-15T07:49:14;3.80;99.90
32640;DHT22;19049;52.524;11.468;2024-01-15T07:51:39;3.80;99.90
32640;DHT22;19049;52.524;11.468;2024-01-15T07:54:11;3.80;99.90
32640;DHT22;19049;52.524;11.468;2024-01-15T07:59:21;3.90;99.90
32640;DHT22;19049;52.524;11.468;2024-01-15T08:01:46;4.00;99.90
32640;DHT22;19049;52.524;11.468;2024-01-15T08:04:12;3.90;99.90
32640;DHT22;19049;52.524;11.468;2024-01-15T08:06:38;4.00;99.90
32640;DHT22;19049;52.524;11.468;2024-01-15T08:09:04;4.00;99.90
32640;DHT22;19049;52.524;11.468;2024-01-15T08:11:30;4.00;99.90
32640;DHT22;19049;52.524;11.468;2024-01-15T08:13:56;4.00;99.90
32640;DHT22;19049;52.524;11.468;2024-01-15T08:16:21;4.00;99.90
32640;DHT22;19049;52.524;11.468;2024-01-15T08:18:47;4.00;99.90
32640;DHT22;19049;52.524;11.468;2024-01-15T08:21:13;3.90;99.90
32640;DHT22;19049;52.524;11.468;2024-01-15T08:23:38;4.00;99.90
32640;DHT22;19049;52.524;11.468;2024-01-15T08:26:04;4.00;99.90
32640;DHT22;19049;52.524;11.468;2024-01-15T08:28:30;4.10;99.90
32640;DHT22;19049;52.524;11.468;2024-01-15T08:30:56;4.00;99.90
32640;DHT22;19049;52.524;11.468;2024-01-15T08:33:21;4.10;99.90
32640;DHT22;19049;52.524;11.468;2024-01-15T08:35:47;4.00;99.90
32640;DHT22;19049;52.524;11.468;2024-01-15T08:38:13;3.90;99.90
32640;DHT22;19049;52.524;11.468;2024-01-15T08:40:38;3.90;99.90
32640;DHT22;19049;52.524;11.468;2024-01-15T08:43:04;3.90;99.90
32640;DHT22;19049;52.524;11.468;2024-01-15T08:45:32;4.00;99.90
32640;DHT22;19049;52.524;11.468;2024-01-15T08:47:57;3.80;99.90
32640;DHT22;19049;52.524;11.468;2024-01-15T08:50:23;3.90;99.90
32640;DHT22;19049;52.524;11.468;2024-01-15T08:52:48;4.00;99.90
32640;DHT22;19049;52.524;11.468;2024-01-15T08:55:14;4.10;99.90
32640;DHT22;19049;52.524;11.468;2024-01-15T08:57:39;4.10;99.90
32640;DHT22;19049;52.524;11.468;2024-01-15T09:00:05;4.10;99.90
32640;DHT22;19049;52.524;11.468;2024-01-15T09:02:34;4.20;99.90
32640;DHT22;19049;52.524;11.468;2024-01-15T09:04:59;4.20;99.90
32640;DHT22;19049;52.524;11.468;2024-01-15T09:07:25;4.20;99.90
32640;DHT22;19049;52.524;11.468;2024-01-15T09:09:52;4.30;99.90
32640;DHT22;19049;52.524;11.468;2024-01-15T09:12:18;4.30;99.90
32640;DHT22;19049;52.524;11.468;2024-01-15T09:14:44;4.30;99.90
32640;DHT22;19049;52.524;11.468;2024-01-15T09:17:09;4.40;99.90
32640;DHT22;19049;52.524;11.468;2024-01-15T09:19:35;4.40;99.90
32640;DHT22;19049;52.524;11.468;2024-01-15T09:22:00;4.40;99.90
32640;DHT22;19049;52.524;11.468;2024-01-15T09:24:26;4.40;99.90
32640;DHT22;19049;52.524;11.468;2024-01-15T09:26:51;4.30;99.90
32640;DHT22;19049;52.524;11.468;2024-01-15T09:29:17;4.20;99.90
32640;DHT22;19049;52.524;11.468;2024-01-15T09:31:43;4.30;99.90
32640;DHT22;19049;52.524;11.468;2024-01-15T09:34:09;4.10;99.90
32640;DHT22;19049;52.524;11.468;2024-01-15T09:36:39;4.10;99.90
32640;DHT22;19049;52.524;11.468;2024-01-15T09:39:06;4.10;99.90
32640;DHT22;19049;52.524;11.468;2024-01-15T09:41:35;4.10;99.90
32640;DHT22;19049;52.524;11.468;2024-01-15T09:44:02;4.10;99.90
32640;DHT22;19049;52.524;11.468;2024-01-15T09:46:28;4.10;99.90
32640;DHT22;19049;52.524;11.468;2024-01-15T09:48:54;4.10;99.90
32640;DHT22;19049;52.524;11.468;2024-01-15T09:51:20;4.10;99.90
32640;DHT22;19049;52.524;11.468;2024-01-15T09:53:46;4.00;99.90
32640;DHT22;19049;52.524;11.468;2024-01-15T09:56:12;4.00;99.90
32640;DHT22;19049;52.524;11.468;2024-01-15T09:58:38;4.00;99.90
32640;DHT22;19049;52.524;11.468;2024-01-15T10:01:04;3.90;99.90
32640;DHT22;19049;52.524;11.468;2024-01-15T10:03:30;3.80;99.90
32640;DHT22;19049;52.524;11.468;2024-01-15T10:05:58;3.70;99.90
32640;DHT22;19049;52.524;11.468;2024-01-15T10:08:25;3.70;99.90
32640;DHT22;19049;52.524;11.468;2024-01-15T10:10:50;3.70;99.90
32640;DHT22;19049;52.524;11.468;2024-01-15T10:13:16;3.70;99.90
32640;DHT22;19049;52.524;11.468;2024-01-15T10:15:45;3.60;99.90
32640;DHT22;19049;52.524;11.468;2024-01-15T10:18:12;3.60;99.90
32640;DHT22;19049;52.524;11.468;2024-01-15T10:20:37;3.50;99.90
32640;DHT22;19049;52.524;11.468;2024-01-15T10:23:03;3.50;99.90
32640;DHT22;19049;52.524;11.468;2024-01-15T10:25:29;3.60;99.90
32640;DHT22;19049;52.524;11.468;2024-01-15T10:28:03;3.50;99.90
32640;DHT22;19049;52.524;11.468;2024-01-15T10:30:29;3.60;99.90
32640;DHT22;19049;52.524;11.468;2024-01-15T10:33:00;3.70;99.90
32640;DHT22;19049;52.524;11.468;2024-01-15T10:35:35;3.60;99.90
32640;DHT22;19049;52.524;11.468;2024-01-15T10:38:01;3.50;99.90
32640;DHT22;19049;52.524;11.468;2024-01-15T10:40:28;3.60;99.90
32640;DHT22;19049;52.524;11.468;2024-01-15T10:42:54;3.60;99.90
32640;DHT22;19049;52.524;11.468;2024-01-15T10:45:20;3.50;99.90
32640;DHT22;19049;52.524;11.468;2024-01-15T10:47:45;3.50;99.90
32640;DHT22;19049;52.524;11.468;2024-01-15T10:50:12;3.40;99.90
32640;DHT22;19049;52.524;11.468;2024-01-15T10:52:39;3.40;99.90
32640;DHT22;19049;52.524;11.468;2024-01-15T10:55:11;3.30;99.90
32640;DHT22;19049;52.524;11.468;2024-01-15T10:57:38;3.20;99.90
32640;DHT22;19049;52.524;11.468;2024-01-15T11:00:07;3.20;99.90
32640;DHT22;19049;52.524;11.468;2024-01-15T11:02:36;3.20;99.90
32640;DHT22;19049;52.524;11.468;2024-01-15T11:05:02;3.20;99.90
32640;DHT22;19049;52.524;11.468;2024-01-15T11:07:30;3.20;99.90
32640;DHT22;19049;52.524;11.468;2024-01-15T11:09:56;3.10;99.90
32640;DHT22;19049;52.524;11.468;2024-01-15T11:12:24;3.10;99.90
32640;DHT22;19049;52.524;11.468;2024-01-15T11:14:50;3.20;99.90
32640;DHT22;19049;52.524;11.468;2024-01-15T11:17:17;3.20;99.90
32640;DHT22;19049;52.524;11.468;2024-01-15T11:19:45;3.20;99.90
32640;DHT22;19049;52.524;11.468;2024-01-15T11:25:12;3.20;99.90
32640;DHT22;19049;52.524;11.468;2024-01-15T11:27:52;3.30;99.90
32640;DHT22;19049;52.524;11.468;2024-01-15T11:30:19;3.30;99.90
32640;DHT22;19049;52.524;11.468;2024-01-15T11:32:47;3.40;99.90
32640;DHT22;19049;52.524;11.468;2024-01-15T11:35:13;3.40;99.90
32640;DHT22;19049;52.524;11.468;2024-01-15T11:40:21;3.50;99.90
32640;DHT22;19049;52.524;11.468;2024-01-15T11:42:47;3.50;99.90
32640;DHT22;19049;52.524;11.468;2024-01-15T11:45:18;3.50;99.90
32640;DHT22;19049;52.524;11.468;2024-01-15T11:48:09;3.50;99.90
32640;DHT22;19049;52.524;11.468;2024-01-15T11:50:42;3.60;99.90
32640;DHT22;19049;52.524;11.468;2024-01-15T11:53:18;3.60;99.90
32640;DHT22;19049;52.524;11.468;2024-01-15T11:55:46;3.60;99.90
32640;DHT22;19049;52.524;11.468;2024-01-15T11:58:14;3.60;99.90
32640;DHT22;19049;52.524;11.468;2024-01-15T12:00:44;3.60;99.90
32640;DHT22;19049;52.524;11.468;2024-01-15T12:03:10;3.70;99.90
32640;DHT22;19049;52.524;11.468;2024-01-15T12:05:40;3.60;99.90
32640;DHT22;19049;52.524;11.468;2024-01-15T12:08:07;3.70;99.90
32640;DHT22;19049;52.524;11.468;2024-01-15T12:10:39;3.70;99.90
32640;DHT22;19049;52.524;11.468;2024-01-15T12:13:11;3.70;99.90
32640;DHT22;19049;52.524;11.468;2024-01-15T12:15:37;3.70;99.90
32640;DHT22;19049;52.524;11.468;2024-01-15T12:18:03;3.60;99.90
32640;DHT22;19049;52.524;11.468;2024-01-15T12:20:30;3.70;99.90
32640;DHT22;19049;52.524;11.468;2024-01-15T12:22:56;3.80;99.90
32640;DHT22;19049;52.524;11.468;2024-01-15T12:25:23;3.80;99.90
32640;DHT22;19049;52.524;11.468;2024-01-15T12:27:50;3.90;99.90
32640;DHT22;19049;52.524;11.468;2024-01-15T12:30:16;3.90;99.90
32640;DHT22;19049;52.524;11.468;2024-01-15T12:32:42;3.90;99.90
32640;DHT22;19049;52.524;11.468;2024-01-15T12:35:08;3.90;99.90
32640;DHT22;19049;52.524;11.468;2024-01-15T12:37:39;4.00;99.90
32640;DHT22;19049;52.524;11.468;2024-01-15T12:40:07;4.10;99.90
32640;DHT22;19049;52.524;11.468;2024-01-15T12:42:36;4.10;99.90
32640;DHT22;19049;52.524;11.468;2024-01-15T12:45:03;4.10;99.90
32640;DHT22;19049;52.524;11.468;2024-01-15T12:47:30;4.10;99.90
32640;DHT22;19049;52.524;11.468;2024-01-15T12:49:57;4.10;99.90
32640;DHT22;19049;52.524;11.468;2024-01-15T12:52:23;4.10;99.90
32640;DHT22;19049;52.524;11.468;2024-01-15T12:54:51;4.10;99.90
32640;DHT22;19049;52.524;11.468;2024-01-15T12:57:17;4.00;99.90
32640;DHT22;19049;52.524;11.468;2024-01-15T12:59:43;4.00;99.90
32640;DHT22;19049;52.524;11.468;2024-01-15T13:02:10;4.00;99.90
32640;DHT22;19049;52.524;11.468;2024-01-15T13:04:37;4.00;99.90
32640;DHT22;19049;52.524;11.468;2024-01-15T13:07:02;4.00;99.90
32640;DHT22;19049;52.524;11.468;2024-01-15T13:09:28;4.00;99.90
32640;DHT22;19049;52.524;11.468;2024-01-15T13:11:55;3.90;99.90
32640;DHT22;19049;52.524;11.468;2024-01-15T13:14:20;4.00;99.90
32640;DHT22;19049;52.524;11.468;2024-01-15T13:16:46;3.90;99.90
32640;DHT22;19049;52.524;11.468;2024-01-15T13:19:12;3.80;99.90
32640;DHT22;19049;52.524;11.468;2024-01-15T13:21:39;3.70;99.90
32640;DHT22;19049;52.524;11.468;2024-01-15T13:24:05;3.70;99.90
32640;DHT22;19049;52.524;11.468;2024-01-15T13:26:35;3.60;99.90
32640;DHT22;19049;52.524;11.468;2024-01-15T13:29:04;3.50;99.90
32640;DHT22;19049;52.524;11.468;2024-01-15T13:31:30;3.60;99.90
32640;DHT22;19049;52.524;11.468;2024-01-15T13:33:56;3.60;99.90
32640;DHT22;19049;52.524;11.468;2024-01-15T13:36:22;3.60;99.90
32640;DHT22;19049;52.524;11.468;2024-01-15T13:38:50;3.60;99.90
32640;DHT22;19049;52.524;11.468;2024-01-15T13:41:17;3.60;99.90
32640;DHT22;19049;52.524;11.468;2024-01-15T13:43:50;3.60;99.90
32640;DHT22;19049;52.524;11.468;2024-01-15T13:46:18;3.70;99.90
32640;DHT22;19049;52.524;11.468;2024-01-15T13:48:45;3.70;99.90
32640;DHT22;19049;52.524;11.468;2024-01-15T13:51:11;3.80;99.90
32640;DHT22;19049;52.524;11.468;2024-01-15T13:53:38;3.70;99.90
32640;DHT22;19049;52.524;11.468;2024-01-15T13:56:04;3.70;99.90
32640;DHT22;19049;52.524;11.468;2024-01-15T13:58:32;3.70;99.90
32640;DHT22;19049;52.524;11.468;2024-01-15T14:00:59;3.70;99.90
32640;DHT22;19049;52.524;11.468;2024-01-15T14:03:24;3.70;99.90
32640;DHT22;19049;52.524;11.468;2024-01-15T14:05:51;3.70;99.90
32640;DHT22;19049;52.524;11.468;2024-01-15T14:08:17;3.70;99.90
32640;DHT22;19049;52.524;11.468;2024-01-15T14:10:42;3.70;99.90
32640;DHT22;19049;52.524;11.468;2024-01-15T14:13:08;3.60;99.90
32640;DHT22;19049;52.524;11.468;2024-01-15T14:15:34;3.60;99.90
32640;DHT22;19049;52.524;11.468;2024-01-15T14:18:00;3.60;99.90
32640;DHT22;19049;52.524;11.468;2024-01-15T14:20:26;3.60;99.90
32640;DHT22;19049;52.524;11.468;2024-01-15T14:22:53;3.60;99.90
32640;DHT22;19049;52.524;11.468;2024-01-15T14:25:19;3.60;99.90
32640;DHT22;19049;52.524;11.468;2024-01-15T14:27:45;3.50;99.90
32640;DHT22;19049;52.524;11.468;2024-01-15T14:30:11;3.50;99.90
32640;DHT22;19049;52.524;11.468;2024-01-15T14:32:38;3.60;99.90
32640;DHT22;19049;52.524;11.468;2024-01-15T14:35:06;3.60;99.90
32640;DHT22;19049;52.524;11.468;2024-01-15T14:37:33;3.60;99.90
32640;DHT22;19049;52.524;11.468;2024-01-15T14:39:59;3.60;99.90
32640;DHT22;19049;52.524;11.468;2024-01-15T14:42:24;3.60;99.90
32640;DHT22;19049;52.524;11.468;2024-01-15T14:44:51;3.60;99.90
32640;DHT22;19049;52.524;11.468;2024-01-15T14:47:16;3.60;99.90
32640;DHT22;19049;52.524;11.468;2024-01-15T14:49:42;3.60;99.90
32640;DHT22;19049;52.524;11.468;2024-01-15T14:52:07;3.60;99.90
32640;DHT22;19049;52.524;11.468;2024-01-15T14:54:33;3.70;99.90
32640;DHT22;19049;52.524;11.468;2024-01-15T14:56:59;3.60;99.90
32640;DHT22;19049;52.524;11.468;2024-01-15T14:59:24;3.60;99.90
32640;DHT22;19049;52.524;11.468;2024-01-15T15:01:50;3.60;99.90
32640;DHT22;19049;52.524;11.468;2024-01-15T15:04:15;3.60;99.90
32640;DHT22;19049;52.524;11.468;2024-01-15T15:06:41;3.60;99.90
32640;DHT22;19049;52.524;11.468;2024-01-15T15:09:06;3.50;99.90
32640;DHT22;19049;52.524;11.468;2024-01-15T15:11:35;3.50;99.90
32640;DHT22;19049;52.524;11.468;2024-01-15T15:14:04;3.40;99.90
32640;DHT22;19049;52.524;11.468;2024-01-15T15:16:30;3.40;99.90
32640;DHT22;19049;52.524;11.468;2024-01-15T15:18:56;3.40;99.90
32640;DHT22;19049;52.524;11.468;2024-01-15T15:21:22;3.30;99.90
32640;DHT22;19049;52.524;11.468;2024-01-15T15:23:47;3.40;99.90
32640;DHT22;19049;52.524;11.468;2024-01-15T15:26:13;3.30;99.90
32640;DHT22;19049;52.524;11.468;2024-01-15T15:28:39;3.30;99.90
32640;DHT22;19049;52.524;11.468;2024-01-15T15:31:06;3.40;99.90
32640;DHT22;19049;52.524;11.468;2024-01-15T15:33:36;3.30;99.90